GEML

Melilla Airport

Melilla, Spain
METAR GEML 152200Z AUTO VRB02KT CAVOK 25/21 Q1016
Observed Flight Rules
Aug-15 @ 22:00 UTC (27 minutes ago) Visual Flight Rules
Wind Visibility Clouds
Variable at 2 knots 10,000+ meters
  • Clear skies
Temperatures Readings
Current 25°C / 77°F
Dewpoint 21°C / 70°F
Humidity 79%
Altimeter 30" Hg
Pressure 1016 hPa
Elevation 55
METAR GEML 152200Z AUTO VRB02KT CAVOK 25/21 Q1016
Observed Flight Rules
Aug-15 @ 22:00 UTC
(27 minutes ago)
VFR
Wind Visibility
Variable at 2 knots 10,000+ meters
Clouds
  • Clear skies
Temperature Dewpoint
25°C / 77°F 21°C / 70°F
Humidity Altimeter Pressure
79% 30" Hg 1016 hPa